PWSweather.com
Personal Weather Stations
Station Observations
KIDJEROME
Sse Jerome Butte , Jerome, ID 83338

Sse Jerome Butte Jerome, ID 83338

Lat: 42.6981891, Lon: -114.4041362

Elevation: 3960

Station Type: Davis Vantage Pro 2

High Low Average
Temperature 39.0°F3.9°C 24.3°F-4.3°C 32.9°F0.5°C
Dew Point 35.5°F1.9°C 21.7°F-5.7°C 30.3°F-0.9°C
Winds 9.0 mph 14.5 kmh 1.0 mph 1.6 kmh 5.0 mph NE8.0 kmh NE
Wind Gusts 15.0 mph24.1 kmh 3.0 mph4.8 kmh 9.0 mph14.5 kmh
Humidity 98% 85% 90%
Pressure 30.25 in1024.4 mb 29.98 in1015.2 mb -
Precipitation 0.08 in2.0 mm - -
Hour Temp Dew Point Humidity Winds Wind Gusts Pressure Precip Precip Rate Daily Precip Total
12:00 AM 24.5°F-4.2°C 21.7°F-5.7°C 89% 7.0 mph NE11.3 kmh NE 11.0 mph17.7 kmh 30.20 in1022.7 mb 0.00 in0.0 mm 0.00 in0.0 mm 0.00 in0.0 mm
12:15 AM 24.3°F-4.3°C 21.8°F-5.7°C 90% 4.0 mph ENE6.4 kmh ENE 5.0 mph8.0 kmh 30.21 in1023.0 mb 0.00 in0.0 mm 0.00 in0.0 mm 0.00 in0.0 mm
12:30 AM 24.2°F-4.3°C 21.7°F-5.7°C 90% 2.0 mph E3.2 kmh E 5.0 mph8.0 kmh 30.21 in1023.0 mb 0.00 in0.0 mm 0.00 in0.0 mm 0.00 in0.0 mm
12:45 AM 24.0°F-4.4°C 21.5°F-5.8°C 90% 2.0 mph ENE3.2 kmh ENE 5.0 mph8.0 kmh 30.20 in1022.7 mb 0.00 in0.0 mm 0.00 in0.0 mm 0.00 in0.0 mm
01:00 AM 24.3°F-4.3°C 22.1°F-5.5°C 91% 3.0 mph ENE4.8 kmh ENE 11.0 mph17.7 kmh 30.19 in1022.4 mb 0.00 in0.0 mm 0.00 in0.0 mm 0.00 in0.0 mm
01:15 AM 24.7°F-4.1°C 22.2°F-5.4°C 90% 8.0 mph NE12.9 kmh NE 13.0 mph20.9 kmh 30.19 in1022.4 mb 0.00 in0.0 mm 0.00 in0.0 mm 0.00 in0.0 mm
01:30 AM 24.3°F-4.3°C 21.8°F-5.7°C 90% 8.0 mph NE12.9 kmh NE 13.0 mph20.9 kmh 30.18 in1022.0 mb 0.00 in0.0 mm 0.00 in0.0 mm 0.00 in0.0 mm
01:45 AM 24.6°F-4.1°C 22.1°F-5.5°C 90% 8.0 mph ENE12.9 kmh ENE 12.0 mph19.3 kmh 30.18 in1022.0 mb 0.00 in0.0 mm 0.00 in0.0 mm 0.00 in0.0 mm
02:00 AM 24.8°F-4.0°C 22.3°F-5.4°C 90% 6.0 mph ENE9.7 kmh ENE 11.0 mph17.7 kmh 30.18 in1022.0 mb 0.00 in0.0 mm 0.00 in0.0 mm 0.00 in0.0 mm
02:15 AM 24.7°F-4.1°C 22.2°F-5.4°C 90% 7.0 mph NE11.3 kmh NE 13.0 mph20.9 kmh 30.18 in1022.0 mb 0.00 in0.0 mm 0.00 in0.0 mm 0.00 in0.0 mm
02:30 AM 24.5°F-4.2°C 21.7°F-5.7°C 89% 8.0 mph NE12.9 kmh NE 15.0 mph24.1 kmh 30.18 in1022.0 mb 0.00 in0.0 mm 0.00 in0.0 mm 0.00 in0.0 mm
02:45 AM 24.4°F-4.2°C 21.9°F-5.6°C 90% 7.0 mph NE11.3 kmh NE 11.0 mph17.7 kmh 30.18 in1022.0 mb 0.00 in0.0 mm 0.00 in0.0 mm 0.00 in0.0 mm
03:00 AM 24.7°F-4.1°C 22.2°F-5.4°C 90% 6.0 mph NE9.7 kmh NE 9.0 mph14.5 kmh 30.18 in1022.0 mb 0.00 in0.0 mm 0.00 in0.0 mm 0.00 in0.0 mm
03:15 AM 25.0°F-3.9°C 22.5°F-5.3°C 90% 6.0 mph NE9.7 kmh NE 11.0 mph17.7 kmh 30.18 in1022.0 mb 0.00 in0.0 mm 0.00 in0.0 mm 0.00 in0.0 mm
03:30 AM 24.5°F-4.2°C 22.0°F-5.6°C 90% 7.0 mph NE11.3 kmh NE 10.0 mph16.1 kmh 30.19 in1022.4 mb 0.00 in0.0 mm 0.00 in0.0 mm 0.00 in0.0 mm
03:45 AM 24.9°F-3.9°C 22.4°F-5.3°C 90% 7.0 mph NE11.3 kmh NE 10.0 mph16.1 kmh 30.19 in1022.4 mb 0.00 in0.0 mm 0.00 in0.0 mm 0.00 in0.0 mm
04:00 AM 25.4°F-3.7°C 22.9°F-5.1°C 90% 7.0 mph NE11.3 kmh NE 11.0 mph17.7 kmh 30.18 in1022.0 mb 0.00 in0.0 mm 0.00 in0.0 mm 0.00 in0.0 mm
04:15 AM 26.1°F-3.3°C 23.3°F-4.8°C 89% 9.0 mph NE14.5 kmh NE 14.0 mph22.5 kmh 30.18 in1022.0 mb 0.00 in0.0 mm 0.00 in0.0 mm 0.00 in0.0 mm
04:30 AM 26.4°F-3.1°C 23.6°F-4.7°C 89% 8.0 mph NE12.9 kmh NE 12.0 mph19.3 kmh 30.18 in1022.0 mb 0.00 in0.0 mm 0.00 in0.0 mm 0.00 in0.0 mm
04:45 AM 27.0°F-2.8°C 24.2°F-4.3°C 89% 7.0 mph NE11.3 kmh NE 11.0 mph17.7 kmh 30.19 in1022.4 mb 0.00 in0.0 mm 0.00 in0.0 mm 0.00 in0.0 mm
05:00 AM 27.3°F-2.6°C 24.5°F-4.2°C 89% 6.0 mph NE9.7 kmh NE 9.0 mph14.5 kmh 30.18 in1022.0 mb 0.00 in0.0 mm 0.00 in0.0 mm 0.00 in0.0 mm
05:15 AM 27.5°F-2.5°C 24.7°F-4.1°C 89% 7.0 mph NE11.3 kmh NE 10.0 mph16.1 kmh 30.17 in1021.7 mb 0.00 in0.0 mm 0.00 in0.0 mm 0.00 in0.0 mm
05:30 AM 27.2°F-2.7°C 25.2°F-3.8°C 92% 7.0 mph NE11.3 kmh NE 10.0 mph16.1 kmh 30.17 in1021.7 mb 0.00 in0.0 mm 0.00 in0.0 mm 0.00 in0.0 mm
05:45 AM 26.9°F-2.8°C 25.4°F-3.7°C 94% 7.0 mph NE11.3 kmh NE 9.0 mph14.5 kmh 30.17 in1021.7 mb 0.00 in0.0 mm 0.00 in0.0 mm 0.00 in0.0 mm
06:00 AM 27.1°F-2.7°C 25.9°F-3.4°C 95% 6.0 mph NE9.7 kmh NE 9.0 mph14.5 kmh 30.17 in1021.7 mb 0.00 in0.0 mm 0.00 in0.0 mm 0.00 in0.0 mm
06:15 AM 27.6°F-2.4°C 26.6°F-3.0°C 96% 4.0 mph NE6.4 kmh NE 7.0 mph11.3 kmh 30.16 in1021.3 mb 0.00 in0.0 mm 0.00 in0.0 mm 0.00 in0.0 mm
06:30 AM 28.2°F-2.1°C 27.5°F-2.5°C 97% 4.0 mph NE6.4 kmh NE 7.0 mph11.3 kmh 30.17 in1021.7 mb 0.00 in0.0 mm 0.00 in0.0 mm 0.00 in0.0 mm
06:45 AM 28.6°F-1.9°C 27.9°F-2.3°C 97% 4.0 mph NE6.4 kmh NE 6.0 mph9.7 kmh 30.17 in1021.7 mb 0.00 in0.0 mm 0.00 in0.0 mm 0.00 in0.0 mm
07:00 AM 28.7°F-1.8°C 28.0°F-2.2°C 97% 4.0 mph NE6.4 kmh NE 7.0 mph11.3 kmh 30.17 in1021.7 mb 0.00 in0.0 mm 0.00 in0.0 mm 0.00 in0.0 mm
07:15 AM 28.7°F-1.8°C 28.0°F-2.2°C 97% 4.0 mph NE6.4 kmh NE 8.0 mph12.9 kmh 30.17 in1021.7 mb 0.00 in0.0 mm 0.00 in0.0 mm 0.00 in0.0 mm
07:30 AM 28.8°F-1.8°C 28.3°F-2.1°C 98% 5.0 mph NE8.0 kmh NE 8.0 mph12.9 kmh 30.17 in1021.7 mb 0.00 in0.0 mm 0.00 in0.0 mm 0.00 in0.0 mm
07:45 AM 28.8°F-1.8°C 28.3°F-2.1°C 98% 5.0 mph NE8.0 kmh NE 8.0 mph12.9 kmh 30.17 in1021.7 mb 0.00 in0.0 mm 0.00 in0.0 mm 0.00 in0.0 mm
08:00 AM 28.9°F-1.7°C 28.4°F-2.0°C 98% 6.0 mph NE9.7 kmh NE 8.0 mph12.9 kmh 30.17 in1021.7 mb 0.00 in0.0 mm 0.00 in0.0 mm 0.00 in0.0 mm
08:15 AM 29.2°F-1.6°C 28.5°F-1.9°C 97% 6.0 mph NE9.7 kmh NE 9.0 mph14.5 kmh 30.18 in1022.0 mb 0.00 in0.0 mm 0.00 in0.0 mm 0.00 in0.0 mm
08:30 AM 29.4°F-1.4°C 28.7°F-1.8°C 97% 5.0 mph NE8.0 kmh NE 9.0 mph14.5 kmh 30.18 in1022.0 mb 0.00 in0.0 mm 0.00 in0.0 mm 0.00 in0.0 mm
08:45 AM 29.6°F-1.3°C 28.9°F-1.7°C 97% 5.0 mph NE8.0 kmh NE 9.0 mph14.5 kmh 30.18 in1022.0 mb 0.00 in0.0 mm 0.00 in0.0 mm 0.00 in0.0 mm
09:00 AM 29.5°F-1.4°C 28.8°F-1.8°C 97% 6.0 mph NE9.7 kmh NE 9.0 mph14.5 kmh 30.18 in1022.0 mb 0.00 in0.0 mm 0.00 in0.0 mm 0.00 in0.0 mm
09:15 AM 29.8°F-1.2°C 29.1°F-1.6°C 97% 6.0 mph NE9.7 kmh NE 9.0 mph14.5 kmh 30.18 in1022.0 mb 0.00 in0.0 mm 0.00 in0.0 mm 0.00 in0.0 mm
09:30 AM 30.2°F-1.0°C 29.5°F-1.4°C 97% 6.0 mph NE9.7 kmh NE 10.0 mph16.1 kmh 30.19 in1022.4 mb 0.00 in0.0 mm 0.00 in0.0 mm 0.00 in0.0 mm
09:45 AM 30.6°F-0.8°C 29.9°F-1.2°C 97% 5.0 mph NE8.0 kmh NE 8.0 mph12.9 kmh 30.19 in1022.4 mb 0.00 in0.0 mm 0.00 in0.0 mm 0.00 in0.0 mm
10:00 AM 30.8°F-0.7°C 29.8°F-1.2°C 96% 5.0 mph NE8.0 kmh NE 8.0 mph12.9 kmh 30.19 in1022.4 mb 0.00 in0.0 mm 0.00 in0.0 mm 0.00 in0.0 mm
10:15 AM 31.4°F-0.3°C 30.4°F-0.9°C 96% 5.0 mph NNE8.0 kmh NNE 7.0 mph11.3 kmh 30.20 in1022.7 mb 0.00 in0.0 mm 0.00 in0.0 mm 0.00 in0.0 mm
10:30 AM 32.0°F0.0°C 30.7°F-0.7°C 95% 4.0 mph NNE6.4 kmh NNE 6.0 mph9.7 kmh 30.22 in1023.4 mb 0.00 in0.0 mm 0.00 in0.0 mm 0.00 in0.0 mm
10:45 AM 32.3°F0.2°C 30.8°F-0.7°C 94% 4.0 mph NNE6.4 kmh NNE 6.0 mph9.7 kmh 30.22 in1023.4 mb 0.00 in0.0 mm 0.00 in0.0 mm 0.00 in0.0 mm
11:00 AM 32.6°F0.3°C 30.8°F-0.7°C 93% 4.0 mph NE6.4 kmh NE 7.0 mph11.3 kmh 30.23 in1023.7 mb 0.00 in0.0 mm 0.00 in0.0 mm 0.00 in0.0 mm
11:15 AM 32.9°F0.5°C 31.1°F-0.5°C 93% 4.0 mph NE6.4 kmh NE 8.0 mph12.9 kmh 30.23 in1023.7 mb 0.00 in0.0 mm 0.00 in0.0 mm 0.00 in0.0 mm
11:30 AM 33.2°F0.7°C 31.4°F-0.3°C 93% 5.0 mph NE8.0 kmh NE 7.0 mph11.3 kmh 30.24 in1024.0 mb 0.00 in0.0 mm 0.00 in0.0 mm 0.00 in0.0 mm
11:45 AM 33.7°F0.9°C 31.6°F-0.2°C 92% 4.0 mph NE6.4 kmh NE 6.0 mph9.7 kmh 30.25 in1024.4 mb 0.00 in0.0 mm 0.00 in0.0 mm 0.00 in0.0 mm
12:00 PM 34.3°F1.3°C 32.2°F0.1°C 92% 4.0 mph NE6.4 kmh NE 7.0 mph11.3 kmh 30.25 in1024.4 mb 0.00 in0.0 mm 0.00 in0.0 mm 0.00 in0.0 mm
12:15 PM 35.2°F1.8°C 32.8°F0.4°C 91% 4.0 mph NE6.4 kmh NE 7.0 mph11.3 kmh 30.25 in1024.4 mb 0.00 in0.0 mm 0.00 in0.0 mm 0.00 in0.0 mm
12:30 PM 35.9°F2.2°C 33.5°F0.8°C 91% 4.0 mph NE6.4 kmh NE 6.0 mph9.7 kmh 30.25 in1024.4 mb 0.00 in0.0 mm 0.00 in0.0 mm 0.00 in0.0 mm
12:45 PM 37.4°F3.0°C 34.2°F1.2°C 88% 4.0 mph NNE6.4 kmh NNE 7.0 mph11.3 kmh 30.25 in1024.4 mb 0.00 in0.0 mm 0.00 in0.0 mm 0.00 in0.0 mm
01:00 PM 37.6°F3.1°C 34.1°F1.2°C 87% 5.0 mph NE8.0 kmh NE 8.0 mph12.9 kmh 30.25 in1024.4 mb 0.00 in0.0 mm 0.00 in0.0 mm 0.00 in0.0 mm
01:15 PM 37.9°F3.3°C 34.7°F1.5°C 88% 6.0 mph NNE9.7 kmh NNE 9.0 mph14.5 kmh 30.23 in1023.7 mb 0.01 in0.3 mm 0.04 in1.0 mm 0.01 in0.3 mm
01:30 PM 38.4°F3.6°C 35.2°F1.8°C 88% 6.0 mph NE9.7 kmh NE 9.0 mph14.5 kmh 30.23 in1023.7 mb 0.02 in0.5 mm 0.04 in1.0 mm 0.02 in0.5 mm
01:45 PM 38.5°F3.6°C 34.7°F1.5°C 86% 7.0 mph NNE11.3 kmh NNE 12.0 mph19.3 kmh 30.22 in1023.4 mb 0.03 in0.8 mm 0.04 in1.0 mm 0.03 in0.8 mm
02:00 PM 39.0°F3.9°C 35.5°F1.9°C 87% 9.0 mph N14.5 kmh N 12.0 mph19.3 kmh 30.22 in1023.4 mb 0.04 in1.0 mm 0.01 in0.3 mm 0.04 in1.0 mm
02:15 PM 38.9°F3.8°C 35.1°F1.7°C 86% 9.0 mph NNE14.5 kmh NNE 12.0 mph19.3 kmh 30.21 in1023.0 mb 0.03 in0.8 mm 0.00 in0.0 mm 0.04 in1.0 mm
02:30 PM 37.3°F2.9°C 34.1°F1.2°C 88% 7.0 mph N11.3 kmh N 9.0 mph14.5 kmh 30.21 in1023.0 mb 0.03 in0.8 mm 0.00 in0.0 mm 0.05 in1.3 mm
02:45 PM 37.7°F3.2°C 34.5°F1.4°C 88% 6.0 mph NE9.7 kmh NE 10.0 mph16.1 kmh 30.21 in1023.0 mb 0.02 in0.5 mm 0.00 in0.0 mm 0.05 in1.3 mm
03:00 PM 37.1°F2.8°C 34.4°F1.3°C 90% 4.0 mph NE6.4 kmh NE 6.0 mph9.7 kmh 30.21 in1023.0 mb 0.01 in0.3 mm 0.00 in0.0 mm 0.05 in1.3 mm
03:15 PM 37.3°F2.9°C 33.5°F0.8°C 86% 5.0 mph NE8.0 kmh NE 7.0 mph11.3 kmh 30.08 in1018.6 mb 0.00 in0.0 mm 0.00 in0.0 mm 0.03 in0.8 mm
03:30 PM 37.6°F3.1°C 33.8°F1.0°C 86% 4.0 mph NE6.4 kmh NE 5.0 mph8.0 kmh 30.08 in1018.6 mb 0.00 in0.0 mm 0.00 in0.0 mm 0.03 in0.8 mm
03:45 PM 37.1°F2.8°C 33.6°F0.9°C 87% 4.0 mph NE6.4 kmh NE 9.0 mph14.5 kmh 30.09 in1019.0 mb 0.00 in0.0 mm 0.00 in0.0 mm 0.03 in0.8 mm
04:00 PM 37.1°F2.8°C 34.4°F1.3°C 90% 5.0 mph NE8.0 kmh NE 9.0 mph14.5 kmh 30.09 in1019.0 mb 0.00 in0.0 mm 0.00 in0.0 mm 0.03 in0.8 mm
04:15 PM 37.3°F2.9°C 34.6°F1.4°C 90% 5.0 mph NE8.0 kmh NE 9.0 mph14.5 kmh 30.09 in1019.0 mb 0.00 in0.0 mm 0.00 in0.0 mm 0.03 in0.8 mm
04:30 PM 37.7°F3.2°C 34.8°F1.6°C 89% 5.0 mph NE8.0 kmh NE 10.0 mph16.1 kmh 30.09 in1019.0 mb 0.00 in0.0 mm 0.00 in0.0 mm 0.03 in0.8 mm
04:45 PM 38.1°F3.4°C 35.1°F1.7°C 89% 6.0 mph NE9.7 kmh NE 9.0 mph14.5 kmh 30.09 in1019.0 mb 0.00 in0.0 mm 0.00 in0.0 mm 0.03 in0.8 mm
05:00 PM 38.0°F3.3°C 34.5°F1.4°C 87% 6.0 mph NE9.7 kmh NE 10.0 mph16.1 kmh 30.10 in1019.3 mb 0.00 in0.0 mm 0.00 in0.0 mm 0.03 in0.8 mm
05:15 PM 38.4°F3.6°C 34.9°F1.6°C 87% 5.0 mph NE8.0 kmh NE 6.0 mph9.7 kmh 30.10 in1019.3 mb 0.00 in0.0 mm 0.00 in0.0 mm 0.03 in0.8 mm
05:30 PM 38.0°F3.3°C 34.5°F1.4°C 87% 4.0 mph NE6.4 kmh NE 6.0 mph9.7 kmh 30.10 in1019.3 mb 0.00 in0.0 mm 0.00 in0.0 mm 0.03 in0.8 mm
05:45 PM 37.8°F3.2°C 34.3°F1.3°C 87% 2.0 mph NE3.2 kmh NE 4.0 mph6.4 kmh 30.10 in1019.3 mb 0.00 in0.0 mm 0.00 in0.0 mm 0.03 in0.8 mm
06:00 PM 37.5°F3.1°C 34.3°F1.3°C 88% 1.0 mph ENE1.6 kmh ENE 3.0 mph4.8 kmh 30.10 in1019.3 mb 0.00 in0.0 mm 0.00 in0.0 mm 0.03 in0.8 mm
06:15 PM 37.7°F3.2°C 34.5°F1.4°C 88% 2.0 mph NE3.2 kmh NE 8.0 mph12.9 kmh 30.08 in1018.6 mb 0.00 in0.0 mm 0.00 in0.0 mm 0.03 in0.8 mm
06:30 PM 37.7°F3.2°C 34.2°F1.2°C 87% 5.0 mph NE8.0 kmh NE 10.0 mph16.1 kmh 30.08 in1018.6 mb 0.00 in0.0 mm 0.00 in0.0 mm 0.03 in0.8 mm
06:45 PM 37.4°F3.0°C 33.6°F0.9°C 86% 5.0 mph NE8.0 kmh NE 6.0 mph9.7 kmh 30.07 in1018.3 mb 0.00 in0.0 mm 0.00 in0.0 mm 0.03 in0.8 mm
07:00 PM 37.3°F2.9°C 33.5°F0.8°C 86% 4.0 mph NE6.4 kmh NE 6.0 mph9.7 kmh 30.08 in1018.6 mb 0.00 in0.0 mm 0.00 in0.0 mm 0.03 in0.8 mm
07:15 PM 37.1°F2.8°C 33.6°F0.9°C 87% 4.0 mph NE6.4 kmh NE 6.0 mph9.7 kmh 30.08 in1018.6 mb 0.00 in0.0 mm 0.00 in0.0 mm 0.03 in0.8 mm
07:30 PM 36.6°F2.6°C 33.1°F0.6°C 87% 4.0 mph NE6.4 kmh NE 7.0 mph11.3 kmh 30.08 in1018.6 mb 0.00 in0.0 mm 0.00 in0.0 mm 0.03 in0.8 mm
07:45 PM 36.0°F2.2°C 32.8°F0.4°C 88% 4.0 mph NE6.4 kmh NE 6.0 mph9.7 kmh 30.09 in1019.0 mb 0.00 in0.0 mm 0.00 in0.0 mm 0.03 in0.8 mm
08:00 PM 36.3°F2.4°C 33.1°F0.6°C 88% 5.0 mph NE8.0 kmh NE 10.0 mph16.1 kmh 30.09 in1019.0 mb 0.00 in0.0 mm 0.00 in0.0 mm 0.03 in0.8 mm
08:15 PM 36.8°F2.7°C 33.3°F0.7°C 87% 5.0 mph NE8.0 kmh NE 7.0 mph11.3 kmh 30.08 in1018.6 mb 0.00 in0.0 mm 0.00 in0.0 mm 0.03 in0.8 mm
08:30 PM 36.8°F2.7°C 33.3°F0.7°C 87% 5.0 mph NE8.0 kmh NE 6.0 mph9.7 kmh 30.08 in1018.6 mb 0.00 in0.0 mm 0.00 in0.0 mm 0.03 in0.8 mm
08:45 PM 36.9°F2.7°C 33.4°F0.8°C 87% 5.0 mph NE8.0 kmh NE 9.0 mph14.5 kmh 30.09 in1019.0 mb 0.00 in0.0 mm 0.00 in0.0 mm 0.03 in0.8 mm
09:00 PM 37.0°F2.8°C 33.2°F0.7°C 86% 5.0 mph NE8.0 kmh NE 9.0 mph14.5 kmh 30.08 in1018.6 mb 0.00 in0.0 mm 0.00 in0.0 mm 0.03 in0.8 mm
09:15 PM 36.5°F2.5°C 32.4°F0.2°C 85% 6.0 mph NE9.7 kmh NE 9.0 mph14.5 kmh 30.07 in1018.3 mb 0.00 in0.0 mm 0.00 in0.0 mm 0.03 in0.8 mm
09:30 PM 36.4°F2.4°C 32.6°F0.3°C 86% 5.0 mph NE8.0 kmh NE 8.0 mph12.9 kmh 30.07 in1018.3 mb 0.00 in0.0 mm 0.00 in0.0 mm 0.03 in0.8 mm
09:45 PM 36.4°F2.4°C 32.9°F0.5°C 87% 5.0 mph NE8.0 kmh NE 9.0 mph14.5 kmh 30.07 in1018.3 mb 0.00 in0.0 mm 0.00 in0.0 mm 0.03 in0.8 mm
10:00 PM 36.6°F2.6°C 32.8°F0.4°C 86% 5.0 mph NE8.0 kmh NE 10.0 mph16.1 kmh 30.05 in1017.6 mb 0.00 in0.0 mm 0.00 in0.0 mm 0.03 in0.8 mm
10:30 PM 36.7°F2.6°C 32.9°F0.5°C 86% 5.0 mph NE8.0 kmh NE 10.0 mph16.1 kmh 30.04 in1017.3 mb 0.00 in0.0 mm 0.00 in0.0 mm 0.03 in0.8 mm
10:45 PM 36.4°F2.4°C 32.6°F0.3°C 86% 7.0 mph NE11.3 kmh NE 12.0 mph19.3 kmh 30.05 in1017.6 mb 0.00 in0.0 mm 0.00 in0.0 mm 0.03 in0.8 mm
11:00 PM 36.0°F2.2°C 32.2°F0.1°C 86% 7.0 mph NE11.3 kmh NE 11.0 mph17.7 kmh 30.05 in1017.6 mb 0.00 in0.0 mm 0.00 in0.0 mm 0.03 in0.8 mm
11:15 PM 36.4°F2.4°C 32.6°F0.3°C 86% 5.0 mph NE8.0 kmh NE 7.0 mph11.3 kmh 30.02 in1016.6 mb 0.00 in0.0 mm 0.00 in0.0 mm 0.03 in0.8 mm
11:30 PM 37.7°F3.2°C 33.6°F0.9°C 85% 4.0 mph NE6.4 kmh NE 6.0 mph9.7 kmh 30.01 in1016.3 mb 0.00 in0.0 mm 0.00 in0.0 mm 0.03 in0.8 mm
11:45 PM 37.5°F3.1°C 33.4°F0.8°C 85% 3.0 mph NE4.8 kmh NE 6.0 mph9.7 kmh 30.01 in1016.3 mb 0.00 in0.0 mm 0.00 in0.0 mm 0.03 in0.8 mm